Time;durP1;ratioP1;P1;durP2;ratioP2;P2;SDS_P1;SDS_P2;PMS_P1;PMS_P2;Temp;Humidity;BMP_temperature;BMP_pressure;BME280_temperature;BME280_humidity;BME280_pressure;Samples;Min_cycle;Max_cycle;Signal;HPM_P1;HPM_P2
2021/04/20 00:01:36;;;;;;;89.65;23.77;;;2.80;1.00;;;;;;5133250;27;20290;-69
2021/04/20 00:04:03;;;;;;;82.78;20.15;;;2.80;1.00;;;;;;5136604;27;20222;-69
2021/04/20 00:06:30;;;;;;;80.57;20.35;;;2.80;1.00;;;;;;5136793;27;20211;-69
2021/04/20 00:08:56;;;;;;;82.38;20.45;;;2.70;1.00;;;;;;5136819;27;20664;-69
2021/04/20 00:11:22;;;;;;;80.65;21.10;;;2.70;1.00;;;;;;5136781;27;20213;-69
2021/04/20 00:13:49;;;;;;;79.57;20.70;;;2.70;1.00;;;;;;5136512;27;20297;-69
2021/04/20 00:16:16;;;;;;;87.63;23.48;;;2.70;1.00;;;;;;5136564;27;20618;-69
2021/04/20 00:18:42;;;;;;;81.13;21.23;;;2.70;1.00;;;;;;5136483;27;20350;-69
2021/04/20 00:21:09;;;;;;;78.30;19.50;;;2.70;1.00;;;;;;5136565;27;20210;-69
2021/04/20 00:23:35;;;;;;;83.70;20.25;;;2.70;1.00;;;;;;5136431;27;20229;-69
2021/04/20 00:26:01;;;;;;;85.88;22.35;;;2.60;1.00;;;;;;5136576;27;20291;-69
2021/04/20 00:28:29;;;;;;;81.63;22.17;;;2.60;1.00;;;;;;5136468;27;20285;-69
2021/04/20 00:30:55;;;;;;;82.05;19.92;;;2.60;1.00;;;;;;5136347;27;20293;-69
2021/04/20 00:33:23;;;;;;;82.88;20.67;;;2.50;1.00;;;;;;5136192;27;20683;-69
2021/04/20 00:35:49;;;;;;;79.18;20.50;;;2.50;1.00;;;;;;5136409;27;20290;-69
2021/04/20 00:38:17;;;;;;;86.95;20.85;;;2.50;1.00;;;;;;5136079;27;20600;-69
2021/04/20 00:40:43;;;;;;;84.00;23.02;;;2.60;1.00;;;;;;5136225;27;20229;-69
2021/04/20 00:43:10;;;;;;;81.53;20.45;;;2.60;1.00;;;;;;5135935;27;20769;-69
2021/04/20 00:45:39;;;;;;;83.22;21.35;;;2.60;1.00;;;;;;5135853;27;20314;-69
2021/04/20 00:48:07;;;;;;;81.70;20.58;;;2.60;1.00;;;;;;5136239;27;20203;-69
2021/04/20 00:50:37;;;;;;;84.18;21.10;;;2.60;1.00;;;;;;5135974;27;20259;-69
2021/04/20 00:53:04;;;;;;;83.82;20.45;;;2.50;1.00;;;;;;5135972;27;20218;-69
2021/04/20 00:55:30;;;;;;;82.25;22.05;;;2.50;1.00;;;;;;5135725;27;20202;-69
2021/04/20 00:57:57;;;;;;;81.63;20.55;;;2.50;1.00;;;;;;5135630;27;20749;-69
2021/04/20 01:00:25;;;;;;;93.65;23.05;;;2.50;1.00;;;;;;5136018;27;20635;-69
2021/04/20 01:02:52;;;;;;;82.05;20.88;;;2.60;1.00;;;;;;5135747;27;20289;-69
2021/04/20 01:05:21;;;;;;;81.38;19.70;;;2.60;1.00;;;;;;5135940;27;20315;-69
2021/04/20 01:07:49;;;;;;;80.03;20.10;;;2.70;1.00;;;;;;5135642;27;20213;-68
2021/04/20 01:10:17;;;;;;;79.95;20.90;;;2.70;1.00;;;;;;5135510;27;20298;-69
2021/04/20 01:12:44;;;;;;;81.85;19.90;;;2.80;1.00;;;;;;5135115;27;20294;-69
2021/04/20 01:15:13;;;;;;;81.45;20.35;;;2.80;1.00;;;;;;5134869;27;20309;-68
2021/04/20 01:17:40;;;;;;;81.72;21.92;;;2.80;1.00;;;;;;5135630;27;20210;-68
2021/04/20 01:20:08;;;;;;;81.10;22.35;;;2.90;1.00;;;;;;5135461;27;20227;-68
2021/04/20 01:22:37;;;;;;;86.50;21.95;;;2.90;1.00;;;;;;5135475;27;20237;-68
2021/04/20 01:25:06;;;;;;;83.90;21.30;;;3.00;1.00;;;;;;5135159;27;20337;-68
2021/04/20 01:27:33;;;;;;;86.60;23.38;;;3.00;1.00;;;;;;5135551;27;20203;-68
2021/04/20 01:30:01;;;;;;;82.32;22.15;;;3.00;1.00;;;;;;5135268;27;20446;-68
2021/04/20 01:32:27;;;;;;;81.93;20.65;;;3.10;1.00;;;;;;5135183;27;20203;-68
2021/04/20 01:34:56;;;;;;;80.53;21.02;;;3.10;1.00;;;;;;5135211;27;20237;-68
2021/04/20 01:37:22;;;;;;;81.00;20.67;;;3.10;1.00;;;;;;5135174;27;20211;-69
2021/04/20 01:39:50;;;;;;;83.30;22.50;;;3.10;1.00;;;;;;5134920;27;20585;-69
2021/04/20 01:42:17;;;;;;;86.72;23.88;;;3.10;1.00;;;;;;5134824;27;20210;-69
2021/04/20 01:44:44;;;;;;;87.60;24.13;;;3.10;1.00;;;;;;5134735;27;20237;-69
2021/04/20 01:47:11;;;;;;;81.55;21.77;;;3.10;1.00;;;;;;5134981;27;20290;-69
2021/04/20 01:49:37;;;;;;;84.45;21.90;;;3.10;1.00;;;;;;5134893;27;20223;-70
2021/04/20 01:52:04;;;;;;;83.90;22.50;;;3.20;1.00;;;;;;5134899;27;20241;-70
2021/04/20 01:54:30;;;;;;;84.70;23.45;;;3.10;1.00;;;;;;5134691;27;20285;-69
2021/04/20 01:56:58;;;;;;;85.28;24.67;;;3.20;1.00;;;;;;5134945;27;20294;-69
2021/04/20 01:59:25;;;;;;;91.30;24.90;;;3.20;1.00;;;;;;5134653;27;20222;-69
2021/04/20 02:01:52;;;;;;;93.15;24.98;;;3.20;1.00;;;;;;5134659;27;20293;-70
2021/04/20 02:04:19;;;;;;;82.18;24.02;;;3.20;1.00;;;;;;5134520;27;20223;-69
2021/04/20 02:06:46;;;;;;;83.55;23.33;;;3.20;1.00;;;;;;5134412;27;20238;-69
2021/04/20 02:09:12;;;;;;;90.43;24.70;;;3.20;1.00;;;;;;5134696;27;20262;-69
2021/04/20 02:11:39;;;;;;;87.53;23.15;;;3.30;2.00;;;;;;5134549;27;20274;-69
2021/04/20 02:14:06;;;;;;;86.05;22.98;;;3.30;4.00;;;;;;5134535;27;20253;-69
2021/04/20 02:16:33;;;;;;;88.55;24.42;;;3.40;5.60;;;;;;5134367;27;20294;-69
2021/04/20 02:19:05;;;;;;;85.00;22.83;;;3.40;8.10;;;;;;5134120;27;20231;-69
2021/04/20 02:21:33;;;;;;;84.97;24.55;;;3.40;9.70;;;;;;5134219;27;20615;-69
2021/04/20 02:23:59;;;;;;;86.30;22.90;;;3.40;10.50;;;;;;5134201;27;20645;-69
2021/04/20 02:26:30;;;;;;;84.95;21.83;;;3.40;11.00;;;;;;5134130;27;20294;-69
2021/04/20 02:28:58;;;;;;;86.38;23.92;;;3.40;11.20;;;;;;5134094;27;20317;-69
2021/04/20 02:31:25;;;;;;;79.63;21.65;;;3.50;11.80;;;;;;5134131;27;20202;-69
2021/04/20 02:33:54;;;;;;;80.78;20.92;;;3.50;12.40;;;;;;5133727;27;20290;-67
2021/04/20 02:36:21;;;;;;;83.20;23.58;;;3.50;12.40;;;;;;5134037;27;20207;-69
2021/04/20 02:38:47;;;;;;;80.25;21.50;;;3.50;12.60;;;;;;5133889;27;20586;-69
2021/04/20 02:41:17;;;;;;;84.15;23.15;;;3.50;12.40;;;;;;5133930;27;20207;-69
2021/04/20 02:43:45;;;;;;;80.65;22.50;;;3.50;12.10;;;;;;5133936;27;20556;-70
2021/04/20 02:46:12;;;;;;;83.80;24.30;;;3.50;11.70;;;;;;5133734;27;20225;-69
2021/04/20 02:48:39;;;;;;;92.22;26.50;;;3.40;11.20;;;;;;5133522;27;20215;-70
2021/04/20 02:51:10;;;;;;;90.68;25.00;;;3.40;11.30;;;;;;5133748;27;20210;-70
2021/04/20 02:53:37;;;;;;;87.45;24.20;;;3.40;11.50;;;;;;5133677;27;20226;-69
2021/04/20 02:56:04;;;;;;;83.63;22.50;;;3.40;11.70;;;;;;5133592;27;20675;-69
2021/04/20 02:58:32;;;;;;;87.38;24.60;;;3.40;12.50;;;;;;5133518;27;20199;-69
2021/04/20 03:01:03;;;;;;;86.47;24.25;;;3.40;12.10;;;;;;5133376;27;20285;-70
2021/04/20 03:03:30;;;;;;;83.25;22.60;;;3.40;12.40;;;;;;5133561;27;20291;-69
2021/04/20 03:06:00;;;;;;;84.78;23.58;;;3.40;13.10;;;;;;5133562;27;20281;-69
2021/04/20 03:08:28;;;;;;;84.75;24.27;;;3.40;13.70;;;;;;5133397;27;20242;-69
2021/04/20 03:11:00;;;;;;;92.95;25.08;;;3.40;14.10;;;;;;5133202;27;20305;-70
2021/04/20 03:13:27;;;;;;;88.25;25.88;;;3.40;15.10;;;;;;5133375;27;20662;-69
2021/04/20 03:15:54;;;;;;;88.15;23.63;;;3.40;15.70;;;;;;5133312;27;20286;-70
2021/04/20 03:18:20;;;;;;;84.25;23.67;;;3.40;16.40;;;;;;5133021;27;20295;-69
2021/04/20 03:20:47;;;;;;;82.85;23.40;;;3.40;17.10;;;;;;5133196;27;20576;-67
2021/04/20 03:23:13;;;;;;;83.55;24.75;;;3.40;17.80;;;;;;5132868;27;20198;-70
2021/04/20 03:25:41;;;;;;;85.30;25.10;;;3.40;18.20;;;;;;5132858;27;20726;-69
2021/04/20 03:28:08;;;;;;;88.30;23.83;;;3.40;18.50;;;;;;5132936;27;20199;-69
2021/04/20 03:30:35;;;;;;;86.35;23.92;;;3.40;18.80;;;;;;5132791;27;20219;-70
2021/04/20 03:33:11;;;;;;;88.93;25.25;;;3.40;19.20;;;;;;5132971;27;20739;-69
2021/04/20 03:35:46;;;;;;;87.05;24.30;;;3.30;19.10;;;;;;5133367;27;20603;-70
2021/04/20 03:38:21;;;;;;;90.20;25.23;;;3.30;19.60;;;;;;5132409;27;20634;-70
2021/04/20 03:40:52;;;;;;;84.40;23.48;;;3.30;20.30;;;;;;5132748;27;20662;-69
2021/04/20 03:43:25;;;;;;;81.95;22.58;;;3.30;20.90;;;;;;5133069;27;20209;-69
2021/04/20 03:45:57;;;;;;;85.30;22.90;;;3.30;21.30;;;;;;5132800;27;20642;-69
2021/04/20 03:48:27;;;;;;;88.07;25.13;;;3.30;22.00;;;;;;5132750;27;20245;-70
2021/04/20 03:51:00;;;;;;;86.90;24.70;;;3.30;22.70;;;;;;5132566;27;20309;-70
2021/04/20 03:53:27;;;;;;;86.47;24.75;;;3.30;23.60;;;;;;5132869;27;20297;-69
2021/04/20 03:55:55;;;;;;;97.47;28.63;;;3.30;25.00;;;;;;5132644;27;20201;-69
2021/04/20 03:58:26;;;;;;;89.05;25.83;;;3.30;26.80;;;;;;5132649;27;20290;-69
2021/04/20 04:00:55;;;;;;;89.45;26.45;;;3.30;28.30;;;;;;5132727;27;20741;-69
2021/04/20 04:03:26;;;;;;;88.18;25.58;;;3.30;29.80;;;;;;5132520;27;20286;-69
2021/04/20 04:05:53;;;;;;;88.38;25.25;;;3.30;30.40;;;;;;5132415;27;20290;-69
2021/04/20 04:08:21;;;;;;;93.50;24.00;;;3.30;31.30;;;;;;5132768;27;20293;-69
2021/04/20 04:10:58;;;;;;;88.80;24.90;;;3.30;31.50;;;;;;5132490;27;20222;-69
2021/04/20 04:13:28;;;;;;;89.07;24.90;;;3.20;31.70;;;;;;5132378;27;20217;-69
2021/04/20 04:15:59;;;;;;;91.03;25.40;;;3.20;32.60;;;;;;5132492;27;20360;-69
2021/04/20 04:18:27;;;;;;;94.80;26.70;;;3.20;33.40;;;;;;5132715;27;20226;-69
2021/04/20 04:20:54;;;;;;;91.75;27.15;;;3.20;34.80;;;;;;5132602;27;20244;-70
2021/04/20 04:23:23;;;;;;;91.78;25.40;;;3.20;35.50;;;;;;5132390;27;20342;-69
2021/04/20 04:25:55;;;;;;;89.63;25.95;;;3.20;36.20;;;;;;5132310;27;20225;-69
2021/04/20 04:28:23;;;;;;;86.05;24.55;;;3.20;36.90;;;;;;5132350;27;20207;-69
2021/04/20 04:30:51;;;;;;;87.93;24.13;;;3.20;37.30;;;;;;5132207;27;20619;-69
2021/04/20 04:33:19;;;;;;;88.10;25.90;;;3.20;37.80;;;;;;5132394;27;20822;-69
2021/04/20 04:35:48;;;;;;;95.50;28.48;;;3.30;38.80;;;;;;5132293;27;20203;-69
2021/04/20 04:38:15;;;;;;;96.28;27.35;;;3.30;39.70;;;;;;5132226;27;20301;-69
2021/04/20 04:40:42;;;;;;;95.00;27.17;;;3.30;40.50;;;;;;5132186;27;20313;-69
2021/04/20 04:43:09;;;;;;;92.45;25.80;;;3.40;41.50;;;;;;5132155;27;20586;-69
2021/04/20 04:45:35;;;;;;;97.05;27.63;;;3.40;42.50;;;;;;5132265;27;20223;-69
2021/04/20 04:48:03;;;;;;;82.93;23.42;;;3.40;43.30;;;;;;5132122;27;20734;-69
2021/04/20 04:50:30;;;;;;;93.25;28.40;;;3.40;44.30;;;;;;5135793;27;20310;-69
2021/04/20 04:52:57;;;;;;;95.22;26.63;;;3.40;45.10;;;;;;5135929;27;20207;-70
2021/04/20 04:55:23;;;;;;;86.63;25.25;;;3.50;45.60;;;;;;5136097;27;20336;-69
2021/04/20 04:57:51;;;;;;;88.70;25.30;;;3.50;46.40;;;;;;5135973;27;20238;-69
2021/04/20 05:00:19;;;;;;;88.55;25.45;;;3.50;47.80;;;;;;5135940;27;20238;-69
2021/04/20 05:02:46;;;;;;;85.60;25.05;;;3.50;47.80;;;;;;5135634;27;20207;-69
2021/04/20 05:05:15;;;;;;;86.53;23.88;;;3.60;48.70;;;;;;5135741;27;20330;-69
2021/04/20 05:07:42;;;;;;;84.30;22.77;;;3.50;48.70;;;;;;5135745;27;20226;-67
2021/04/20 05:10:11;;;;;;;85.00;22.70;;;3.50;49.10;;;;;;5135310;27;20790;-70
2021/04/20 05:12:38;;;;;;;85.60;24.05;;;3.60;49.70;;;;;;5135659;27;20207;-69
2021/04/20 05:15:06;;;;;;;86.88;23.92;;;3.60;50.30;;;;;;5135558;27;20286;-69
2021/04/20 05:17:33;;;;;;;87.75;24.20;;;3.60;50.40;;;;;;5135703;27;20231;-69
2021/04/20 05:19:59;;;;;;;80.70;21.95;;;3.60;50.90;;;;;;5135542;27;20231;-68
2021/04/20 05:22:27;;;;;;;84.70;24.02;;;3.60;51.70;;;;;;5135362;27;20207;-69
2021/04/20 05:24:53;;;;;;;81.70;21.65;;;3.60;51.70;;;;;;5135096;27;20321;-69
2021/04/20 05:27:20;;;;;;;85.38;23.13;;;3.60;52.00;;;;;;5135517;27;20236;-69
2021/04/20 05:29:46;;;;;;;82.78;23.48;;;3.60;52.30;;;;;;5135468;27;20269;-69
2021/04/20 05:32:12;;;;;;;86.65;24.85;;;3.60;53.00;;;;;;5135320;27;20238;-69
2021/04/20 05:34:39;;;;;;;83.88;22.80;;;3.70;53.30;;;;;;5135117;27;20234;-69
2021/04/20 05:37:05;;;;;;;90.20;25.23;;;3.80;54.80;;;;;;5136549;27;20242;-69
2021/04/20 05:39:32;;;;;;;91.10;24.85;;;3.90;57.00;;;;;;5133155;27;20219;-69
2021/04/20 05:41:59;;;;;;;91.03;25.65;;;4.10;59.40;;;;;;5133064;27;20341;-69
2021/04/20 05:44:25;;;;;;;87.80;25.00;;;4.20;60.80;;;;;;5133264;27;20729;-69
2021/04/20 05:46:58;;;;;;;85.03;24.02;;;4.30;62.00;;;;;;5133180;27;20210;-69
2021/04/20 05:49:26;;;;;;;85.78;22.58;;;4.40;62.60;;;;;;5132997;27;20313;-69
2021/04/20 05:51:52;;;;;;;82.20;21.90;;;4.50;63.30;;;;;;5132748;27;20199;-69
2021/04/20 05:54:19;;;;;;;87.40;24.38;;;4.50;63.70;;;;;;5133954;27;20214;-69
2021/04/20 05:56:48;;;;;;;86.07;23.50;;;4.50;64.00;;;;;;5134732;27;20285;-69
2021/04/20 05:59:17;;;;;;;83.38;23.33;;;4.50;64.10;;;;;;5134243;27;20223;-68
2021/04/20 06:01:44;;;;;;;86.82;25.88;;;4.50;64.40;;;;;;5134649;27;20561;-68
2021/04/20 06:04:12;;;;;;;87.30;25.05;;;4.60;64.80;;;;;;5134307;27;20650;-68
2021/04/20 06:06:40;;;;;;;87.38;24.63;;;4.70;65.20;;;;;;5134472;27;20471;-69
2021/04/20 06:09:08;;;;;;;85.20;24.85;;;4.80;65.60;;;;;;5134609;27;20291;-68
2021/04/20 06:11:35;;;;;;;83.10;22.90;;;4.90;65.90;;;;;;5134475;27;20734;-69
2021/04/20 06:14:03;;;;;;;77.90;21.98;;;5.00;66.00;;;;;;5134600;27;20674;-68
2021/04/20 06:16:30;;;;;;;85.85;21.90;;;5.00;66.20;;;;;;5134418;27;20207;-68
2021/04/20 06:18:57;;;;;;;80.57;21.02;;;5.00;65.80;;;;;;5134066;27;20313;-68
2021/04/20 06:21:26;;;;;;;79.13;21.17;;;5.00;65.20;;;;;;5134393;27;20253;-68
2021/04/20 06:23:52;;;;;;;80.63;21.83;;;5.00;64.00;;;;;;5134216;27;20572;-69
2021/04/20 06:26:19;;;;;;;78.53;20.15;;;5.00;62.60;;;;;;5134170;27;20230;-68
2021/04/20 06:28:45;;;;;;;82.63;22.30;;;4.90;60.30;;;;;;5133925;27;20725;-68
2021/04/20 06:31:14;;;;;;;81.22;22.20;;;4.80;55.40;;;;;;5134027;27;20672;-69
2021/04/20 06:33:42;;;;;;;82.22;21.35;;;4.80;52.60;;;;;;5133918;27;20616;-68
2021/04/20 06:36:10;;;;;;;86.85;23.65;;;4.70;51.00;;;;;;5134161;27;20589;-69
2021/04/20 06:38:38;;;;;;;84.20;24.13;;;4.80;51.80;;;;;;5133803;27;20215;-68
2021/04/20 06:41:06;;;;;;;84.70;24.77;;;4.80;51.70;;;;;;5133796;27;20294;-68
2021/04/20 06:43:42;;;;;;;82.78;23.85;;;4.80;51.00;;;;;;5133707;27;20234;-68
2021/04/20 06:46:15;;;;;;;87.18;24.45;;;4.90;53.00;;;;;;5133580;27;20744;-68
2021/04/20 06:48:44;;;;;;;88.60;24.30;;;5.10;58.40;;;;;;5133546;27;20674;-68
2021/04/20 06:51:17;;;;;;;86.78;24.38;;;5.40;62.10;;;;;;5133739;27;20206;-68
2021/04/20 06:53:48;;;;;;;89.93;27.17;;;5.60;64.40;;;;;;5133457;27;20317;-69
2021/04/20 06:56:23;;;;;;;86.45;25.42;;;5.80;66.00;;;;;;5133546;27;20203;-69
2021/04/20 06:58:55;;;;;;;84.47;24.50;;;6.00;67.20;;;;;;5133783;27;20578;-69
2021/04/20 07:01:30;;;;;;;85.80;24.15;;;6.30;68.70;;;;;;5133806;27;20505;-69
2021/04/20 07:04:11;;;;;;;87.65;24.60;;;6.50;69.30;;;;;;5133441;27;20207;-68
2021/04/20 07:06:44;;;;;;;87.63;24.42;;;6.60;69.30;;;;;;5133286;27;20286;-69
2021/04/20 07:09:16;;;;;;;81.53;22.98;;;6.80;67.80;;;;;;5133468;27;20258;-69
2021/04/20 07:11:46;;;;;;;81.78;23.25;;;7.00;64.90;;;;;;5132705;27;20204;-69
2021/04/20 07:14:25;;;;;;;86.30;24.27;;;7.20;60.10;;;;;;5133237;27;20295;-70
2021/04/20 07:17:02;;;;;;;85.83;23.70;;;7.40;45.60;;;;;;5133323;27;20717;-70
2021/04/20 07:19:53;;;;;;;83.50;23.95;;;7.50;27.60;;;;;;5132906;27;20528;-70
2021/04/20 07:22:43;;;;;;;80.80;20.60;;;7.70;15.70;;;;;;5131145;27;20203;-69
2021/04/20 07:25:25;;;;;;;79.30;22.05;;;7.80;3.60;;;;;;5132770;27;20766;-70
2021/04/20 07:28:07;;;;;;;79.22;21.23;;;8.00;1.00;;;;;;5133179;27;20270;-70
2021/04/20 07:30:43;;;;;;;81.40;21.13;;;8.20;1.00;;;;;;5132986;27;20668;-70
2021/04/20 07:34:00;;;;;;;76.13;20.20;;;8.30;1.00;;;;;;5132736;27;20454;-69
2021/04/20 07:36:41;;;;;;;77.87;19.97;;;8.40;1.00;;;;;;5132486;27;20442;-70
2021/04/20 07:39:14;;;;;;;77.97;19.77;;;8.50;1.00;;;;;;5132652;27;20544;-68
2021/04/20 07:41:47;;;;;;;78.67;19.97;;;8.70;1.00;;;;;;5132870;27;20435;-70
2021/04/20 07:44:22;;;;;;;78.40;21.10;;;8.80;1.00;;;;;;5132507;27;20533;-69
2021/04/20 07:46:52;;;;;;;80.50;22.87;;;9.00;1.00;;;;;;5132664;27;20474;-69
2021/04/20 07:49:26;;;;;;;83.80;23.80;;;9.00;1.00;;;;;;5132634;27;20534;-69
2021/04/20 07:52:02;;;;;;;79.20;22.97;;;9.00;1.00;;;;;;5132763;27;20806;-70
2021/04/20 07:54:41;;;;;;;86.27;25.90;;;8.80;1.00;;;;;;5132924;27;20938;-70
2021/04/20 07:57:16;;;;;;;81.37;23.40;;;8.70;1.00;;;;;;5132775;27;20463;-70
2021/04/20 07:59:55;;;;;;;84.57;24.80;;;8.60;1.00;;;;;;5132376;27;20504;-70
2021/04/20 08:02:32;;;;;;;86.63;25.77;;;8.60;1.00;;;;;;5132424;27;20587;-70
2021/04/20 08:05:07;;;;;;;87.93;25.83;;;8.50;1.00;;;;;;5132394;27;20568;-70
2021/04/20 08:07:43;;;;;;;85.90;24.43;;;8.50;1.00;;;;;;5132447;28;20933;-70
2021/04/20 08:10:12;;;;;;;85.37;25.87;;;8.50;1.00;;;;;;5132492;27;20596;-71
2021/04/20 08:12:49;;;;;;;84.30;25.87;;;8.50;1.00;;;;;;5132431;27;20583;-71
2021/04/20 08:15:24;;;;;;;86.77;26.17;;;8.50;1.00;;;;;;5132313;27;20441;-69
2021/04/20 08:18:00;;;;;;;85.43;25.90;;;8.60;1.00;;;;;;5132395;27;20473;-70
2021/04/20 08:20:28;;;;;;;87.80;27.93;;;8.70;1.00;;;;;;5132517;27;20474;-68
2021/04/20 08:22:57;;;;;;;85.27;26.07;;;8.80;1.00;;;;;;5132867;27;20569;-69
2021/04/20 08:25:26;;;;;;;86.27;27.90;;;8.90;1.00;;;;;;5136435;27;20997;-71
2021/04/20 08:27:59;;;;;;;92.03;28.97;;;9.00;1.00;;;;;;5136586;27;20493;-70
2021/04/20 08:30:33;;;;;;;84.43;25.20;;;9.10;1.00;;;;;;5136363;27;20554;-70
2021/04/20 08:33:04;;;;;;;85.37;26.10;;;9.30;1.00;;;;;;5136272;27;20454;-71
2021/04/20 08:35:32;;;;;;;89.07;29.30;;;9.50;1.00;;;;;;5136158;27;20454;-71
2021/04/20 08:38:07;;;;;;;89.03;28.40;;;9.70;1.00;;;;;;5136212;27;20942;-69
2021/04/20 08:40:41;;;;;;;90.67;29.70;;;9.80;1.00;;;;;;5135880;27;20478;-70
2021/04/20 08:43:37;;;;;;;90.10;28.00;;;10.00;1.00;;;;;;5135968;27;20459;-70
2021/04/20 08:46:16;;;;;;;86.67;28.50;;;10.20;1.00;;;;;;5134553;27;20519;-70
2021/04/20 08:48:50;;;;;;;83.37;26.40;;;10.40;1.00;;;;;;5136037;27;20451;-70
2021/04/20 08:51:26;;;;;;;89.50;29.40;;;10.60;1.00;;;;;;5136212;27;20974;-69
2021/04/20 08:54:04;;;;;;;85.30;27.27;;;10.70;1.00;;;;;;5135997;27;20542;-68
2021/04/20 08:56:38;;;;;;;85.83;27.50;;;10.90;1.00;;;;;;5135802;27;20472;-70
2021/04/20 08:59:17;;;;;;;86.70;27.60;;;11.00;1.00;;;;;;5135800;27;21139;-69
2021/04/20 09:01:53;;;;;;;85.87;27.50;;;11.10;1.00;;;;;;5136035;27;20450;-69
2021/04/20 09:04:40;;;;;;;84.07;26.93;;;11.30;1.00;;;;;;5135703;27;20534;-70
2021/04/20 09:07:15;;;;;;;84.20;25.83;;;11.50;1.00;;;;;;5135617;27;20531;-69
2021/04/20 09:09:45;;;;;;;82.03;24.50;;;11.80;1.00;;;;;;5135423;27;20543;-69
2021/04/20 09:12:14;;;;;;;79.63;25.50;;;12.10;1.00;;;;;;5135330;27;20559;-69
2021/04/20 09:14:42;;;;;;;81.83;25.93;;;12.40;1.00;;;;;;5135392;27;20527;-69
2021/04/20 09:17:10;;;;;;;82.70;25.17;;;12.80;1.00;;;;;;5135664;27;20544;-68
2021/04/20 09:19:41;;;;;;;76.77;22.80;;;13.00;1.00;;;;;;5135343;27;20496;-68
2021/04/20 09:22:16;;;;;;;79.13;23.73;;;13.10;1.00;;;;;;5135200;27;20968;-69
2021/04/20 09:24:48;;;;;;;77.37;20.97;;;13.10;1.00;;;;;;5135516;27;20450;-68
2021/04/20 09:27:17;;;;;;;78.10;20.60;;;13.30;1.00;;;;;;5135485;27;20922;-68
2021/04/20 09:29:49;;;;;;;75.20;20.17;;;13.50;1.00;;;;;;5135081;27;21059;-68
2021/04/20 09:32:20;;;;;;;75.73;20.93;;;13.70;1.00;;;;;;5135166;27;20455;-68
2021/04/20 09:34:50;;;;;;;76.93;21.53;;;13.90;1.00;;;;;;5134425;27;20544;-70
2021/04/20 09:37:19;;;;;;;78.27;22.93;;;14.10;1.00;;;;;;5135153;27;20460;-69
2021/04/20 09:39:48;;;;;;;73.77;19.60;;;14.20;1.00;;;;;;5134919;27;20472;-68
2021/04/20 09:42:16;;;;;;;77.90;21.60;;;14.50;1.00;;;;;;5134838;27;20535;-68
2021/04/20 09:44:53;;;;;;;75.30;18.70;;;14.80;1.00;;;;;;5134756;27;20505;-68
2021/04/20 09:47:44;;;;;;;77.70;21.40;;;14.70;1.00;;;;;;5134592;27;20519;-68
2021/04/20 09:50:17;;;;;;;79.07;22.57;;;14.80;1.00;;;;;;5134980;27;20460;-67
2021/04/20 09:52:54;;;;;;;74.50;20.10;;;15.00;1.00;;;;;;5134753;27;20531;-68
2021/04/20 09:55:28;;;;;;;75.30;20.13;;;15.30;1.00;;;;;;5134575;27;20579;-68
2021/04/20 09:57:57;;;;;;;77.67;20.07;;;15.50;1.00;;;;;;5135621;27;20478;-68
2021/04/20 10:00:24;;;;;;;73.53;19.67;;;15.80;1.00;;;;;;5134471;27;20556;-68
2021/04/20 10:03:13;;;;;;;71.93;18.17;;;16.00;1.00;;;;;;5133881;27;20928;-68
2021/04/20 10:05:57;;;;;;;70.90;16.40;;;16.20;1.00;;;;;;5133926;27;20557;-68
2021/04/20 10:08:35;;;;;;;72.20;18.23;;;16.50;1.00;;;;;;5134640;27;20858;-68
2021/04/20 10:11:06;;;;;;;73.50;18.43;;;16.70;1.00;;;;;;5134581;27;20512;-68
2021/04/20 10:13:56;;;;;;;70.00;16.70;;;17.30;1.00;;;;;;5134353;27;21011;-67
2021/04/20 10:16:27;;;;;;;73.13;17.93;;;17.30;1.00;;;;;;5134188;27;20504;-68
2021/04/20 10:19:03;;;;;;;73.20;17.60;;;17.30;1.00;;;;;;5133963;27;20550;-68
2021/04/20 10:21:36;;;;;;;70.93;16.30;;;17.20;1.00;;;;;;5134344;27;20814;-69
2021/04/20 10:24:11;;;;;;;65.67;12.93;;;17.60;1.00;;;;;;5133889;27;20497;-68
2021/04/20 10:26:43;;;;;;;71.40;16.50;;;18.90;1.00;;;;;;5112754;28;21096;-69
2021/04/20 10:29:18;;;;;;;68.40;15.20;;;20.40;1.00;;;;;;5113429;28;20558;-69
2021/04/20 10:31:52;;;;;;;66.93;13.90;;;21.50;1.00;;;;;;5132676;27;20815;-69
2021/04/20 10:34:20;;;;;;;66.67;13.30;;;22.80;1.00;;;;;;5133736;27;20447;-69
2021/04/20 10:36:52;;;;;;;64.97;11.00;;;23.50;1.00;;;;;;5133271;27;20490;-68
2021/04/20 10:39:22;;;;;;;65.10;12.40;;;23.90;1.00;;;;;;5133641;27;20470;-69
2021/04/20 10:41:51;;;;;;;65.60;12.77;;;25.00;1.00;;;;;;5133756;27;20862;-68
2021/04/20 10:44:20;;;;;;;66.63;13.70;;;25.70;1.00;;;;;;5132857;27;20541;-68
2021/04/20 10:46:54;;;;;;;65.97;12.93;;;26.30;1.00;;;;;;5132773;27;20567;-68
2021/04/20 10:49:23;;;;;;;65.77;13.77;;;26.80;1.00;;;;;;5131609;27;20495;-68
2021/04/20 10:51:56;;;;;;;65.40;12.53;;;27.20;1.00;;;;;;5133277;27;20484;-67
2021/04/20 10:54:28;;;;;;;67.13;13.13;;;27.10;1.00;;;;;;5134103;27;20453;-68
2021/04/20 10:56:56;;;;;;;66.30;14.13;;;27.00;1.00;;;;;;5133719;27;20527;-68
2021/04/20 10:59:32;;;;;;;65.70;13.10;;;26.70;1.00;;;;;;5133193;27;20495;-68
2021/04/20 11:02:01;;;;;;;65.67;13.77;;;26.60;1.00;;;;;;5133228;27;20447;-68
2021/04/20 11:04:32;;;;;;;64.20;13.17;;;26.40;1.00;;;;;;5133144;27;20453;-69
2021/04/20 11:07:22;;;;;;;65.00;13.07;;;27.00;1.00;;;;;;5133219;27;20476;-69
2021/04/20 11:09:57;;;;;;;63.30;12.03;;;28.30;1.00;;;;;;5133056;27;20496;-69
2021/04/20 11:12:25;;;;;;;64.47;13.30;;;29.50;1.00;;;;;;5133075;27;20933;-69
2021/04/20 11:14:52;;;;;;;63.30;10.93;;;30.10;1.00;;;;;;5132738;27;20450;-69
2021/04/20 11:17:24;;;;;;;66.30;11.10;;;30.20;1.00;;;;;;5133377;27;20494;-69
2021/04/20 11:19:56;;;;;;;61.97;10.33;;;29.80;1.00;;;;;;5133013;27;20560;-69
2021/04/20 11:22:25;;;;;;;63.07;11.10;;;29.00;1.00;;;;;;5132854;27;20459;-69
2021/04/20 11:25:00;;;;;;;63.10;11.40;;;28.10;1.00;;;;;;5132785;27;20498;-69
2021/04/20 11:27:30;;;;;;;62.37;10.27;;;28.30;1.00;;;;;;5132776;27;20475;-69
2021/04/20 11:30:06;;;;;;;63.93;11.20;;;27.30;1.00;;;;;;5133005;27;20500;-67
2021/04/20 11:32:34;;;;;;;63.40;10.70;;;25.90;1.00;;;;;;5132981;27;20489;-68
2021/04/20 11:35:06;;;;;;;62.07;9.50;;;25.80;1.00;;;;;;5132687;27;20441;-68
2021/04/20 11:37:34;;;;;;;62.77;10.33;;;26.90;1.00;;;;;;5132476;27;20459;-68
2021/04/20 11:40:06;;;;;;;62.17;10.07;;;27.40;1.00;;;;;;5132562;27;20563;-69
2021/04/20 11:42:37;;;;;;;62.90;10.90;;;27.80;1.00;;;;;;5131235;27;20480;-69
2021/04/20 11:45:12;;;;;;;61.47;9.53;;;28.20;1.00;;;;;;5132522;27;20472;-69
2021/04/20 11:47:53;;;;;;;61.77;10.13;;;29.40;1.00;;;;;;5132779;27;20475;-69
2021/04/20 11:50:21;;;;;;;61.67;9.07;;;30.50;1.00;;;;;;5132333;27;20471;-69
2021/04/20 11:52:55;;;;;;;63.03;9.60;;;31.60;1.00;;;;;;5132670;27;20562;-69
2021/04/20 11:55:29;;;;;;;61.33;9.23;;;32.30;1.00;;;;;;5132357;27;20880;-69
2021/04/20 11:58:10;;;;;;;62.20;9.80;;;33.10;1.00;;;;;;5132222;27;20440;-69
2021/04/20 12:00:40;;;;;;;61.47;8.80;;;33.50;1.00;;;;;;5132200;27;20583;-69
2021/04/20 12:03:09;;;;;;;60.40;8.37;;;33.30;1.00;;;;;;5132448;27;20480;-69
2021/04/20 12:05:37;;;;;;;60.97;9.30;;;33.00;1.00;;;;;;5132504;27;20480;-69
2021/04/20 12:08:05;;;;;;;61.27;10.17;;;32.50;1.00;;;;;;5132425;27;20454;-69
2021/04/20 12:10:33;;;;;;;61.30;9.30;;;32.10;1.00;;;;;;5132162;27;20472;-69
2021/04/20 12:13:01;;;;;;;61.50;9.27;;;31.60;1.00;;;;;;5130549;27;20542;-69
2021/04/20 12:15:28;;;;;;;65.17;9.77;;;31.80;1.00;;;;;;5132207;27;20856;-69
2021/04/20 12:17:57;;;;;;;60.07;8.57;;;32.00;1.00;;;;;;5132407;27;20527;-69
2021/04/20 12:20:27;;;;;;;59.70;7.33;;;32.50;1.00;;;;;;5131996;27;20453;-69
2021/04/20 12:22:55;;;;;;;61.87;9.93;;;32.70;1.00;;;;;;5132423;27;21000;-69
2021/04/20 12:25:22;;;;;;;61.10;8.50;;;32.70;1.00;;;;;;5132107;27;20563;-69
2021/04/20 12:27:52;;;;;;;60.17;8.50;;;32.40;1.00;;;;;;5132055;27;20572;-69
2021/04/20 12:30:21;;;;;;;59.83;7.87;;;32.60;1.00;;;;;;5132395;27;20845;-69
2021/04/20 12:32:47;;;;;;;61.27;8.80;;;32.90;1.00;;;;;;5131962;27;20915;-69
2021/04/20 12:35:15;;;;;;;60.67;8.80;;;32.60;1.00;;;;;;5132115;27;20543;-69
2021/04/20 12:37:42;;;;;;;61.37;9.50;;;32.00;1.00;;;;;;5132121;27;20546;-69
2021/04/20 12:40:12;;;;;;;60.93;8.27;;;31.50;1.00;;;;;;5131849;27;20525;-69
2021/04/20 12:42:41;;;;;;;60.07;8.67;;;31.90;1.00;;;;;;5132217;27;20531;-69
2021/04/20 12:45:13;;;;;;;60.50;8.33;;;32.50;1.00;;;;;;5130582;27;20897;-69
2021/04/20 12:47:40;;;;;;;59.77;8.50;;;32.70;1.00;;;;;;5131856;27;20528;-69
2021/04/20 12:50:10;;;;;;;60.10;8.40;;;33.10;1.00;;;;;;5132303;27;20547;-69
2021/04/20 12:52:41;;;;;;;59.57;7.70;;;33.30;1.00;;;;;;5131675;27;20501;-69
2021/04/20 12:55:12;;;;;;;61.27;8.37;;;33.20;1.00;;;;;;5131762;27;20860;-69
2021/04/20 12:57:41;;;;;;;62.27;8.97;;;32.90;1.00;;;;;;5131900;27;20541;-69